Bookmark and Share
Track history (hours):
 

Doce Orion

Last reported at 2012-Jul-18 17:27 UTC. Time now 2014-Apr-18 00:28 UTC.
Position N 22°60' W 020°46'.
Warning: this ship's position is years out of date!

Type: Ship. MMSI: 710034000.

NotesDate/timePositionNaut miles runAvg speedWind from/ knotsBaromVisibWave heightAir tempDewpointWater temp
2012-Jul-18 17:27N 22°60' W 020°46'56 2.8
2012-Jul-17 21:33N 23°35' W 019°59'17 3.3
2012-Jul-17 16:31N 23°47' W 019°47'2 2.1
2012-Jul-17 15:33N 23°49' W 019°45'4711.3
2012-Jul-17 11:24N 24°22' W 019°09'1012.3
2012-Jul-17 10:35N 24°30' W 019°01'2412.1
2012-Jul-17 08:33N 24°47' W 018°43'1212.1
2012-Jul-17 07:33N 24°56' W 018°33'1211.9
2012-Jul-17 06:33N 25°04' W 018°24'1212.0
2012-Jul-17 05:33N 25°13' W 018°15'2512.3
2012-Jul-17 03:32N 25°30' W 017°55'1412.6
2012-Jul-17 02:27N 25°40' W 017°45'1312.6
2012-Jul-17 01:26N 25°49' W 017°35'1112.4
2012-Jul-17 00:33N 25°57' W 017°26'1311.9
2012-Jul-16 23:28N 26°06' W 017°16'2512.2
2012-Jul-16 21:23N 26°24' W 016°56'10912.2
2012-Jul-16 12:25N 27°42' W 015°30'1113.3
2012-Jul-16 11:33N 27°50' W 015°21'1010.5
2012-Jul-16 10:35N 28°00' W 015°19'4 4.4
2012-Jul-16 09:33N 28°05' W 015°20'9 9.0
2012-Jul-16 08:33N 27°56' W 015°17'8 7.8
2012-Jul-16 07:33N 27°49' W 015°21'9 8.1
2012-Jul-16 06:25N 27°43' W 015°29'4210.7
2012-Jul-16 02:32N 27°14' W 016°02'1211.9
2012-Jul-16 01:33N 27°05' W 016°11'5611.2
2012-Jul-15 20:33N 26°25' W 016°55'6212.2
2012-Jul-15 15:28N 27°09' W 016°06'5213.2
2012-Jul-15 11:33N 27°46' W 015°25'1111.6
2012-Jul-15 10:35N 27°56' W 015°18'1211.8
2012-Jul-15 09:33N 28°07' W 015°24'3 2.5
2012-Jul-15 08:33N 28°09' W 015°25'0 0.0
2012-Jul-15 07:33N 28°09' W 015°25'0 0.0
2012-Jul-15 06:33N 28°09' W 015°25'0 0.0
2012-Jul-15 05:33N 28°09' W 015°25'0 0.0
2012-Jul-15 04:36N 28°09' W 015°25'0 0.0
2012-Jul-15 03:33N 28°09' W 015°25'0 0.0
2012-Jul-15 02:33N 28°09' W 015°25'0 0.0
2012-Jul-15 01:33N 28°09' W 015°25'0 0.0
2012-Jul-15 00:33N 28°09' W 015°25'0 0.0
2012-Jul-14 23:33N 28°09' W 015°25'0 0.0
2012-Jul-14 22:33N 28°09' W 015°25'0 0.0
2012-Jul-14 21:33N 28°09' W 015°25'0 0.0
2012-Jul-14 20:33N 28°09' W 015°25'0 0.0
2012-Jul-14 19:33N 28°09' W 015°25'0 0.0
2012-Jul-14 18:33N 28°09' W 015°25'0 0.0
2012-Jul-14 17:33N 28°09' W 015°25'0 0.0
2012-Jul-14 16:33N 28°09' W 015°25'0 0.0
2012-Jul-14 15:33N 28°09' W 015°25'0 0.0
2012-Jul-14 14:33N 28°09' W 015°25'0 0.0
2012-Jul-14 13:33N 28°09' W 015°25'0 0.0
2012-Jul-14 12:33N 28°09' W 015°25'0 0.0
2012-Jul-14 11:33N 28°09' W 015°25'0 0.0
2012-Jul-14 10:34N 28°09' W 015°25'0 0.0
2012-Jul-14 09:33N 28°09' W 015°25'0 0.0
2012-Jul-14 08:33N 28°09' W 015°25'0 0.0
2012-Jul-14 07:33N 28°09' W 015°25'0 0.0
2012-Jul-14 06:33N 28°09' W 015°25'0 0.0
2012-Jul-14 05:33N 28°09' W 015°25'0 0.0
2012-Jul-14 04:37N 28°09' W 015°25'0 0.0
2012-Jul-14 03:33N 28°09' W 015°25'0 0.0
2012-Jul-14 02:33N 28°09' W 015°25'0 0.0
2012-Jul-14 01:33N 28°09' W 015°25'0 0.0
2012-Jul-14 00:33N 28°09' W 015°25'0 0.0
2012-Jul-13 23:33N 28°09' W 015°25'0 0.0
2012-Jul-13 22:33N 28°09' W 015°25'0 0.0
2012-Jul-13 21:33N 28°09' W 015°25'0 0.0
2012-Jul-13 20:33N 28°09' W 015°25'0 0.0
2012-Jul-13 19:33N 28°09' W 015°25'0 0.0
2012-Jul-13 18:33N 28°09' W 015°25'0 0.0
2012-Jul-13 17:33N 28°09' W 015°25'0 0.0
2012-Jul-13 16:33N 28°09' W 015°25'0 0.0
2012-Jul-13 15:33N 28°09' W 015°25'0 0.0
2012-Jul-13 14:33N 28°09' W 015°25'0 0.0
2012-Jul-13 13:33N 28°09' W 015°25'0 0.0
2012-Jul-13 12:33N 28°09' W 015°25'0 0.0
2012-Jul-13 11:33N 28°09' W 015°25'0 0.0
2012-Jul-13 10:35N 28°09' W 015°25'0 0.0
2012-Jul-13 09:33N 28°09' W 015°25'0 0.0
2012-Jul-13 08:33N 28°09' W 015°25'0 0.0
2012-Jul-13 07:33N 28°09' W 015°25'0 0.0
2012-Jul-13 06:33N 28°09' W 015°25'0 0.0
2012-Jul-13 05:33N 28°09' W 015°25'0 0.0
2012-Jul-13 04:37N 28°09' W 015°25'0 0.0
2012-Jul-13 03:33N 28°09' W 015°25'0 0.0
2012-Jul-13 02:33N 28°09' W 015°25'0 0.0
2012-Jul-13 01:33N 28°09' W 015°25'0 0.0
2012-Jul-13 00:33N 28°09' W 015°25'0 0.0
2012-Jul-12 23:33N 28°09' W 015°25'0 0.0
2012-Jul-12 22:33N 28°09' W 015°25'0 0.0
2012-Jul-12 21:33N 28°09' W 015°25'0 0.0
2012-Jul-12 20:33N 28°09' W 015°25'0 0.0
2012-Jul-12 19:33N 28°09' W 015°25'0 0.0
2012-Jul-12 18:33N 28°09' W 015°25'0 0.0
2012-Jul-12 17:33N 28°09' W 015°25'0 0.0
2012-Jul-12 16:34N 28°09' W 015°25'0 0.0
2012-Jul-12 15:33N 28°09' W 015°25'0 0.0
2012-Jul-12 14:33N 28°09' W 015°25'0 0.0
2012-Jul-12 13:33N 28°09' W 015°25'0 0.0
2012-Jul-12 12:33N 28°09' W 015°25'0 0.0
2012-Jul-12 11:33N 28°09' W 015°25'0 0.0
2012-Jul-12 10:34N 28°09' W 015°25'0 0.0
2012-Jul-12 09:33N 28°09' W 015°25'0 0.0
2012-Jul-12 08:33N 28°09' W 015°25'0 0.0
2012-Jul-12 07:32N 28°09' W 015°25'0 0.0
2012-Jul-12 06:33N 28°09' W 015°25'0 0.0
2012-Jul-12 05:33N 28°09' W 015°25'0 0.0
2012-Jul-12 04:37N 28°09' W 015°25'0 0.0
2012-Jul-12 03:33N 28°09' W 015°25'0 0.0
2012-Jul-12 02:33N 28°09' W 015°25'0 0.0
2012-Jul-12 01:34N 28°09' W 015°25'0 0.0
2012-Jul-12 00:33N 28°09' W 015°25'0 0.0
2012-Jul-11 23:33N 28°09' W 015°25'0 0.0
2012-Jul-11 22:33N 28°09' W 015°25'0 0.0
2012-Jul-11 21:33N 28°09' W 015°25'0 0.0
2012-Jul-11 20:33N 28°09' W 015°25'0 0.0
2012-Jul-11 19:33N 28°09' W 015°25'0 0.0
2012-Jul-11 18:33N 28°09' W 015°25'0 0.0
2012-Jul-11 17:33N 28°09' W 015°25'0 0.0
2012-Jul-11 16:33N 28°09' W 015°25'0 0.0
2012-Jul-11 15:33N 28°09' W 015°25'0 0.0
2012-Jul-11 14:33N 28°09' W 015°25'0 0.0
2012-Jul-11 13:33N 28°09' W 015°25'0 0.0
2012-Jul-11 12:33N 28°09' W 015°25'0 0.0
2012-Jul-11 11:33N 28°09' W 015°25'0 0.0
2012-Jul-11 10:35N 28°09' W 015°25'0 0.0
2012-Jul-11 09:33N 28°09' W 015°25'0 0.0
2012-Jul-11 08:33N 28°09' W 015°25'0 0.0
2012-Jul-11 07:33N 28°09' W 015°25'0 0.0
2012-Jul-11 06:32N 28°09' W 015°25'0 0.0
2012-Jul-11 05:33N 28°09' W 015°25'0 0.0
2012-Jul-11 04:36N 28°09' W 015°25'0 0.0
2012-Jul-11 03:33N 28°09' W 015°25'0 0.0
2012-Jul-11 02:33N 28°09' W 015°25'0 0.0
2012-Jul-11 01:33N 28°09' W 015°25'0 0.0
2012-Jul-11 00:33N 28°09' W 015°25'0 0.0
2012-Jul-10 23:33N 28°09' W 015°25'0 0.0
2012-Jul-10 22:33N 28°09' W 015°25'0 0.0
2012-Jul-10 21:33N 28°09' W 015°25'0 0.0
2012-Jul-10 20:33N 28°09' W 015°25'0 0.0
2012-Jul-10 19:33N 28°09' W 015°25'0 0.0
2012-Jul-10 18:33N 28°09' W 015°25'0 0.0
2012-Jul-10 17:32N 28°09' W 015°25'0 0.0
2012-Jul-10 16:33N 28°09' W 015°25'0 0.0
2012-Jul-10 15:33N 28°09' W 015°25'0 0.0
2012-Jul-10 14:33N 28°09' W 015°25'0 0.0
2012-Jul-10 13:33N 28°09' W 015°25'0 0.0
2012-Jul-10 12:33N 28°09' W 015°25'0 0.0
2012-Jul-10 11:33N 28°09' W 015°25'0 0.0
2012-Jul-10 10:36N 28°09' W 015°25'0 0.0
2012-Jul-10 09:33N 28°09' W 015°25'0 0.0
2012-Jul-10 08:33N 28°09' W 015°25'0 0.0
2012-Jul-10 07:33N 28°09' W 015°25'0 0.0
2012-Jul-10 06:33N 28°09' W 015°25'0 0.0
2012-Jul-10 05:33N 28°09' W 015°25'0 0.0
2012-Jul-10 04:36N 28°09' W 015°25'0 0.0
2012-Jul-10 03:33N 28°09' W 015°25'0 0.0
2012-Jul-10 02:33N 28°09' W 015°25'0 0.0
2012-Jul-10 01:33N 28°09' W 015°25'0 0.0
2012-Jul-10 00:33N 28°09' W 015°25'0 0.0
2012-Jul-09 23:33N 28°09' W 015°25'0 0.0
2012-Jul-09 22:33N 28°09' W 015°25'0 0.0
2012-Jul-09 21:33N 28°09' W 015°25'0 0.0
2012-Jul-09 20:31N 28°09' W 015°25'0 0.0
2012-Jul-09 19:30N 28°09' W 015°25'0 0.0
2012-Jul-09 18:33N 28°09' W 015°25'0 0.0
2012-Jul-09 17:31N 28°09' W 015°25'0 0.0
2012-Jul-09 16:33N 28°09' W 015°25'0 0.0
2012-Jul-09 15:33N 28°09' W 015°25'0 0.0
2012-Jul-09 14:33N 28°09' W 015°25'0 0.0
2012-Jul-09 13:32N 28°09' W 015°25'0 0.0
2012-Jul-09 12:33N 28°09' W 015°25'0 0.0
2012-Jul-09 11:32N 28°09' W 015°25'0 0.0
2012-Jul-09 10:35N 28°09' W 015°25'0 0.0
2012-Jul-09 09:33N 28°09' W 015°25'0 0.0
2012-Jul-09 08:31N 28°09' W 015°25'0 0.0
2012-Jul-09 07:33N 28°09' W 015°25'0 0.0
2012-Jul-09 06:32N 28°09' W 015°25'0 0.0
2012-Jul-09 05:33N 28°09' W 015°25'0 0.0
2012-Jul-09 04:36N 28°09' W 015°25'0 0.0
2012-Jul-09 03:33N 28°09' W 015°25'0 0.0
2012-Jul-09 02:32N 28°09' W 015°25'0 0.0
2012-Jul-09 01:33N 28°09' W 015°25'0 0.0
2012-Jul-09 00:32N 28°09' W 015°25'0 0.0
2012-Jul-08 23:33N 28°09' W 015°25'0 0.0
2012-Jul-08 22:33N 28°09' W 015°25'0 0.0
2012-Jul-08 21:33N 28°09' W 015°25'0 0.0
2012-Jul-08 20:33N 28°09' W 015°25'0 0.0
2012-Jul-08 19:33N 28°09' W 015°25'0 0.0
2012-Jul-08 18:32N 28°09' W 015°25'0 0.0
2012-Jul-08 17:33N 28°09' W 015°25'  

Dump ship's entire track history

sailing weather and tide predictions

Doce Orion — PPWN — position and weather